sensor_id;sensor_type;location;lat;lon;timestamp;temperature;humidity
21778;DHT22;11050;52.222;20.916;2022-12-10T00:01:22;1.30;99.90
21778;DHT22;11050;52.222;20.916;2022-12-10T00:03:49;1.30;99.90
21778;DHT22;11050;52.222;20.916;2022-12-10T00:06:21;1.30;99.90
21778;DHT22;11050;52.222;20.916;2022-12-10T00:08:51;1.30;99.90
21778;DHT22;11050;52.222;20.916;2022-12-10T00:11:19;1.30;99.90
21778;DHT22;11050;52.222;20.916;2022-12-10T00:13:47;1.30;99.90
21778;DHT22;11050;52.222;20.916;2022-12-10T00:16:15;1.30;99.90
21778;DHT22;11050;52.222;20.916;2022-12-10T00:18:42;1.30;99.90
21778;DHT22;11050;52.222;20.916;2022-12-10T00:21:11;1.30;99.90
21778;DHT22;11050;52.222;20.916;2022-12-10T00:23:39;1.30;99.90
21778;DHT22;11050;52.222;20.916;2022-12-10T00:26:16;1.30;99.90
21778;DHT22;11050;52.222;20.916;2022-12-10T00:28:51;1.30;99.90
21778;DHT22;11050;52.222;20.916;2022-12-10T00:31:23;1.30;99.90
21778;DHT22;11050;52.222;20.916;2022-12-10T00:33:50;1.30;99.90
21778;DHT22;11050;52.222;20.916;2022-12-10T00:36:21;1.30;99.90
21778;DHT22;11050;52.222;20.916;2022-12-10T00:38:50;1.30;99.90
21778;DHT22;11050;52.222;20.916;2022-12-10T00:41:17;1.30;99.90
21778;DHT22;11050;52.222;20.916;2022-12-10T00:43:43;1.30;99.90
21778;DHT22;11050;52.222;20.916;2022-12-10T00:46:10;1.30;99.90
21778;DHT22;11050;52.222;20.916;2022-12-10T00:48:37;1.20;99.90
21778;DHT22;11050;52.222;20.916;2022-12-10T00:51:06;1.20;99.90
21778;DHT22;11050;52.222;20.916;2022-12-10T00:53:36;1.20;99.90
21778;DHT22;11050;52.222;20.916;2022-12-10T00:56:04;1.20;99.90
21778;DHT22;11050;52.222;20.916;2022-12-10T00:58:32;1.20;99.90
21778;DHT22;11050;52.222;20.916;2022-12-10T01:03:48;1.20;99.90
21778;DHT22;11050;52.222;20.916;2022-12-10T01:06:19;1.20;99.90
21778;DHT22;11050;52.222;20.916;2022-12-10T01:08:46;1.20;99.90
21778;DHT22;11050;52.222;20.916;2022-12-10T01:11:14;1.20;99.90
21778;DHT22;11050;52.222;20.916;2022-12-10T01:13:42;1.20;99.90
21778;DHT22;11050;52.222;20.916;2022-12-10T01:16:11;1.20;99.90
21778;DHT22;11050;52.222;20.916;2022-12-10T01:18:37;1.20;99.90
21778;DHT22;11050;52.222;20.916;2022-12-10T01:21:10;1.20;99.90
21778;DHT22;11050;52.222;20.916;2022-12-10T01:23:39;1.20;99.90
21778;DHT22;11050;52.222;20.916;2022-12-10T01:26:08;1.20;99.90
21778;DHT22;11050;52.222;20.916;2022-12-10T01:28:37;1.20;99.90
21778;DHT22;11050;52.222;20.916;2022-12-10T01:31:10;1.20;99.90
21778;DHT22;11050;52.222;20.916;2022-12-10T01:33:38;1.20;99.90
21778;DHT22;11050;52.222;20.916;2022-12-10T01:36:18;1.20;99.90
21778;DHT22;11050;52.222;20.916;2022-12-10T01:38:47;1.20;99.90
21778;DHT22;11050;52.222;20.916;2022-12-10T01:41:19;1.20;99.90
21778;DHT22;11050;52.222;20.916;2022-12-10T01:43:54;1.20;99.90
21778;DHT22;11050;52.222;20.916;2022-12-10T01:46:24;1.30;99.90
21778;DHT22;11050;52.222;20.916;2022-12-10T01:49:00;1.30;99.90
21778;DHT22;11050;52.222;20.916;2022-12-10T01:51:31;1.30;99.90
21778;DHT22;11050;52.222;20.916;2022-12-10T01:53:59;1.20;99.90
21778;DHT22;11050;52.222;20.916;2022-12-10T01:56:27;1.20;99.90
21778;DHT22;11050;52.222;20.916;2022-12-10T01:58:55;1.30;99.90
21778;DHT22;11050;52.222;20.916;2022-12-10T02:01:43;1.20;99.90
21778;DHT22;11050;52.222;20.916;2022-12-10T02:13:01;1.30;99.90
21778;DHT22;11050;52.222;20.916;2022-12-10T02:15:39;1.20;99.90
21778;DHT22;11050;52.222;20.916;2022-12-10T02:18:14;1.20;99.90
21778;DHT22;11050;52.222;20.916;2022-12-10T02:20:55;1.20;99.90
21778;DHT22;11050;52.222;20.916;2022-12-10T02:23:32;1.20;99.90
21778;DHT22;11050;52.222;20.916;2022-12-10T02:26:22;1.20;99.90
21778;DHT22;11050;52.222;20.916;2022-12-10T02:29:20;1.20;99.90
21778;DHT22;11050;52.222;20.916;2022-12-10T02:31:56;1.20;99.90
21778;DHT22;11050;52.222;20.916;2022-12-10T02:34:31;1.20;99.90
21778;DHT22;11050;52.222;20.916;2022-12-10T02:37:04;1.20;99.90
21778;DHT22;11050;52.222;20.916;2022-12-10T02:39:40;1.20;99.90
21778;DHT22;11050;52.222;20.916;2022-12-10T02:42:12;1.20;99.90
21778;DHT22;11050;52.222;20.916;2022-12-10T02:44:43;1.20;99.90
21778;DHT22;11050;52.222;20.916;2022-12-10T02:47:12;1.20;99.90
21778;DHT22;11050;52.222;20.916;2022-12-10T02:49:40;1.20;99.90
21778;DHT22;11050;52.222;20.916;2022-12-10T02:52:18;1.20;99.90
21778;DHT22;11050;52.222;20.916;2022-12-10T02:54:47;1.20;99.90
21778;DHT22;11050;52.222;20.916;2022-12-10T03:08:48;1.20;99.90
21778;DHT22;11050;52.222;20.916;2022-12-10T03:11:19;1.20;99.90
21778;DHT22;11050;52.222;20.916;2022-12-10T03:14:16;1.20;99.90
21778;DHT22;11050;52.222;20.916;2022-12-10T03:16:58;1.20;99.90
21778;DHT22;11050;52.222;20.916;2022-12-10T03:19:37;1.20;99.90
21778;DHT22;11050;52.222;20.916;2022-12-10T03:22:08;1.20;99.90
21778;DHT22;11050;52.222;20.916;2022-12-10T03:24:40;1.20;99.90
21778;DHT22;11050;52.222;20.916;2022-12-10T03:27:09;1.10;99.90
21778;DHT22;11050;52.222;20.916;2022-12-10T03:29:53;1.20;99.90
21778;DHT22;11050;52.222;20.916;2022-12-10T03:32:22;1.10;99.90
21778;DHT22;11050;52.222;20.916;2022-12-10T03:34:53;1.10;99.90
21778;DHT22;11050;52.222;20.916;2022-12-10T03:37:22;1.10;99.90
21778;DHT22;11050;52.222;20.916;2022-12-10T03:39:49;1.10;99.90
21778;DHT22;11050;52.222;20.916;2022-12-10T03:42:16;1.10;99.90
21778;DHT22;11050;52.222;20.916;2022-12-10T03:44:42;1.10;99.90
21778;DHT22;11050;52.222;20.916;2022-12-10T03:47:11;1.10;99.90
21778;DHT22;11050;52.222;20.916;2022-12-10T03:49:40;1.10;99.90
21778;DHT22;11050;52.222;20.916;2022-12-10T03:52:07;1.10;99.90
21778;DHT22;11050;52.222;20.916;2022-12-10T03:54:33;1.00;99.90
21778;DHT22;11050;52.222;20.916;2022-12-10T03:56:58;1.00;99.90
21778;DHT22;11050;52.222;20.916;2022-12-10T03:59:24;1.00;99.90
21778;DHT22;11050;52.222;20.916;2022-12-10T04:01:50;1.00;99.90
21778;DHT22;11050;52.222;20.916;2022-12-10T04:04:16;1.00;99.90
21778;DHT22;11050;52.222;20.916;2022-12-10T04:06:42;1.00;99.90
21778;DHT22;11050;52.222;20.916;2022-12-10T04:09:10;1.00;99.90
21778;DHT22;11050;52.222;20.916;2022-12-10T04:11:37;1.00;99.90
21778;DHT22;11050;52.222;20.916;2022-12-10T04:14:03;1.10;99.90
21778;DHT22;11050;52.222;20.916;2022-12-10T04:16:47;1.10;99.90
21778;DHT22;11050;52.222;20.916;2022-12-10T04:19:16;1.10;99.90
21778;DHT22;11050;52.222;20.916;2022-12-10T04:21:44;1.10;99.90
21778;DHT22;11050;52.222;20.916;2022-12-10T04:24:31;1.10;99.90
21778;DHT22;11050;52.222;20.916;2022-12-10T04:27:32;1.10;99.90
21778;DHT22;11050;52.222;20.916;2022-12-10T04:30:00;1.10;99.90
21778;DHT22;11050;52.222;20.916;2022-12-10T04:32:27;1.10;99.90
21778;DHT22;11050;52.222;20.916;2022-12-10T04:34:54;1.10;99.90
21778;DHT22;11050;52.222;20.916;2022-12-10T04:37:21;1.20;99.90
21778;DHT22;11050;52.222;20.916;2022-12-10T04:39:52;1.20;99.90
21778;DHT22;11050;52.222;20.916;2022-12-10T04:42:19;1.20;99.90
21778;DHT22;11050;52.222;20.916;2022-12-10T04:44:46;1.20;99.90
21778;DHT22;11050;52.222;20.916;2022-12-10T04:47:13;1.10;99.90
21778;DHT22;11050;52.222;20.916;2022-12-10T04:49:39;1.10;99.90
21778;DHT22;11050;52.222;20.916;2022-12-10T04:52:07;1.10;99.90
21778;DHT22;11050;52.222;20.916;2022-12-10T04:54:33;1.10;99.90
21778;DHT22;11050;52.222;20.916;2022-12-10T04:56:59;1.10;99.90
21778;DHT22;11050;52.222;20.916;2022-12-10T04:59:25;1.10;99.90
21778;DHT22;11050;52.222;20.916;2022-12-10T05:01:51;1.20;99.90
21778;DHT22;11050;52.222;20.916;2022-12-10T05:04:18;1.20;99.90
21778;DHT22;11050;52.222;20.916;2022-12-10T05:06:45;1.10;99.90
21778;DHT22;11050;52.222;20.916;2022-12-10T05:09:13;1.10;99.90
21778;DHT22;11050;52.222;20.916;2022-12-10T05:11:39;1.10;99.90
21778;DHT22;11050;52.222;20.916;2022-12-10T05:14:06;1.10;99.90
21778;DHT22;11050;52.222;20.916;2022-12-10T05:16:35;1.10;99.90
21778;DHT22;11050;52.222;20.916;2022-12-10T05:19:01;1.20;99.90
21778;DHT22;11050;52.222;20.916;2022-12-10T05:21:29;1.20;99.90
21778;DHT22;11050;52.222;20.916;2022-12-10T05:24:14;1.10;99.90
21778;DHT22;11050;52.222;20.916;2022-12-10T05:26:41;1.10;99.90
21778;DHT22;11050;52.222;20.916;2022-12-10T05:29:07;1.10;99.90
21778;DHT22;11050;52.222;20.916;2022-12-10T05:31:33;1.10;99.90
21778;DHT22;11050;52.222;20.916;2022-12-10T05:34:00;1.10;99.90
21778;DHT22;11050;52.222;20.916;2022-12-10T05:36:28;1.20;99.90
21778;DHT22;11050;52.222;20.916;2022-12-10T05:38:57;1.10;99.90
21778;DHT22;11050;52.222;20.916;2022-12-10T05:41:25;1.10;99.90
21778;DHT22;11050;52.222;20.916;2022-12-10T05:43:54;1.10;99.90
21778;DHT22;11050;52.222;20.916;2022-12-10T05:46:25;1.20;99.90
21778;DHT22;11050;52.222;20.916;2022-12-10T05:48:53;1.10;99.90
21778;DHT22;11050;52.222;20.916;2022-12-10T05:51:22;1.10;99.90
21778;DHT22;11050;52.222;20.916;2022-12-10T05:53:54;1.10;99.90
21778;DHT22;11050;52.222;20.916;2022-12-10T05:56:23;1.20;99.90
21778;DHT22;11050;52.222;20.916;2022-12-10T05:58:52;1.20;99.90
21778;DHT22;11050;52.222;20.916;2022-12-10T06:01:25;1.20;99.90
21778;DHT22;11050;52.222;20.916;2022-12-10T06:03:53;1.20;99.90
21778;DHT22;11050;52.222;20.916;2022-12-10T06:06:28;1.20;99.90
21778;DHT22;11050;52.222;20.916;2022-12-10T06:08:56;1.20;99.90
21778;DHT22;11050;52.222;20.916;2022-12-10T06:11:23;1.10;99.90
21778;DHT22;11050;52.222;20.916;2022-12-10T06:13:49;1.20;99.90
21778;DHT22;11050;52.222;20.916;2022-12-10T06:16:15;1.10;99.90
21778;DHT22;11050;52.222;20.916;2022-12-10T06:18:42;1.10;99.90
21778;DHT22;11050;52.222;20.916;2022-12-10T06:21:11;1.10;99.90
21778;DHT22;11050;52.222;20.916;2022-12-10T06:23:40;1.10;99.90
21778;DHT22;11050;52.222;20.916;2022-12-10T06:26:09;1.00;99.90
21778;DHT22;11050;52.222;20.916;2022-12-10T06:28:37;1.00;99.90
21778;DHT22;11050;52.222;20.916;2022-12-10T06:31:04;1.00;99.90
21778;DHT22;11050;52.222;20.916;2022-12-10T06:33:30;0.90;99.90
21778;DHT22;11050;52.222;20.916;2022-12-10T06:35:56;0.90;99.90
21778;DHT22;11050;52.222;20.916;2022-12-10T06:38:23;0.90;99.90
21778;DHT22;11050;52.222;20.916;2022-12-10T06:40:49;0.90;99.90
21778;DHT22;11050;52.222;20.916;2022-12-10T06:43:15;0.90;99.90
21778;DHT22;11050;52.222;20.916;2022-12-10T06:45:41;0.90;99.90
21778;DHT22;11050;52.222;20.916;2022-12-10T06:48:08;0.90;99.90
21778;DHT22;11050;52.222;20.916;2022-12-10T06:50:34;0.90;99.90
21778;DHT22;11050;52.222;20.916;2022-12-10T06:53:00;0.90;99.90
21778;DHT22;11050;52.222;20.916;2022-12-10T06:55:26;0.90;99.90
21778;DHT22;11050;52.222;20.916;2022-12-10T06:57:52;0.90;99.90
21778;DHT22;11050;52.222;20.916;2022-12-10T07:00:20;0.90;99.90
21778;DHT22;11050;52.222;20.916;2022-12-10T07:02:47;0.90;99.90
21778;DHT22;11050;52.222;20.916;2022-12-10T07:05:13;1.00;99.90
21778;DHT22;11050;52.222;20.916;2022-12-10T07:07:39;1.00;99.90
21778;DHT22;11050;52.222;20.916;2022-12-10T07:10:05;0.90;99.90
21778;DHT22;11050;52.222;20.916;2022-12-10T07:12:32;0.90;99.90
21778;DHT22;11050;52.222;20.916;2022-12-10T07:14:58;1.00;99.90
21778;DHT22;11050;52.222;20.916;2022-12-10T07:17:24;0.90;99.90
21778;DHT22;11050;52.222;20.916;2022-12-10T07:19:49;0.90;99.90
21778;DHT22;11050;52.222;20.916;2022-12-10T07:22:15;0.90;99.90
21778;DHT22;11050;52.222;20.916;2022-12-10T07:24:41;1.00;99.90
21778;DHT22;11050;52.222;20.916;2022-12-10T07:27:08;1.00;99.90
21778;DHT22;11050;52.222;20.916;2022-12-10T07:29:34;1.00;99.90
21778;DHT22;11050;52.222;20.916;2022-12-10T07:32:00;1.00;99.90
21778;DHT22;11050;52.222;20.916;2022-12-10T07:34:27;1.00;99.90
21778;DHT22;11050;52.222;20.916;2022-12-10T07:36:52;1.00;99.90
21778;DHT22;11050;52.222;20.916;2022-12-10T07:39:20;1.00;99.90
21778;DHT22;11050;52.222;20.916;2022-12-10T07:41:52;1.10;99.90
21778;DHT22;11050;52.222;20.916;2022-12-10T07:44:20;1.00;99.90
21778;DHT22;11050;52.222;20.916;2022-12-10T07:46:53;1.10;99.90
21778;DHT22;11050;52.222;20.916;2022-12-10T07:49:19;1.10;99.90
21778;DHT22;11050;52.222;20.916;2022-12-10T07:51:46;1.10;99.90
21778;DHT22;11050;52.222;20.916;2022-12-10T07:54:14;1.10;99.90
21778;DHT22;11050;52.222;20.916;2022-12-10T07:56:40;1.10;99.90
21778;DHT22;11050;52.222;20.916;2022-12-10T07:59:07;1.20;99.90
21778;DHT22;11050;52.222;20.916;2022-12-10T08:01:32;1.10;99.90
21778;DHT22;11050;52.222;20.916;2022-12-10T08:03:58;1.20;99.90
21778;DHT22;11050;52.222;20.916;2022-12-10T08:06:27;1.20;99.90
21778;DHT22;11050;52.222;20.916;2022-12-10T08:08:55;1.20;99.90
21778;DHT22;11050;52.222;20.916;2022-12-10T08:11:22;1.20;99.90
21778;DHT22;11050;52.222;20.916;2022-12-10T08:13:49;1.20;99.90
21778;DHT22;11050;52.222;20.916;2022-12-10T08:16:18;1.20;99.90
21778;DHT22;11050;52.222;20.916;2022-12-10T08:18:46;1.20;99.90
21778;DHT22;11050;52.222;20.916;2022-12-10T08:21:15;1.30;99.90
21778;DHT22;11050;52.222;20.916;2022-12-10T08:23:43;1.20;99.90
21778;DHT22;11050;52.222;20.916;2022-12-10T08:26:14;1.30;99.90
21778;DHT22;11050;52.222;20.916;2022-12-10T08:28:42;1.30;99.90
21778;DHT22;11050;52.222;20.916;2022-12-10T08:31:10;1.30;99.90
21778;DHT22;11050;52.222;20.916;2022-12-10T08:33:37;1.30;99.90
21778;DHT22;11050;52.222;20.916;2022-12-10T08:36:05;1.30;99.90
21778;DHT22;11050;52.222;20.916;2022-12-10T08:38:32;1.30;99.90
21778;DHT22;11050;52.222;20.916;2022-12-10T08:40:58;1.30;99.90
21778;DHT22;11050;52.222;20.916;2022-12-10T08:43:24;1.30;99.90
21778;DHT22;11050;52.222;20.916;2022-12-10T08:45:50;1.30;99.90
21778;DHT22;11050;52.222;20.916;2022-12-10T08:48:16;1.30;99.90
21778;DHT22;11050;52.222;20.916;2022-12-10T08:50:42;1.30;99.90
21778;DHT22;11050;52.222;20.916;2022-12-10T08:53:08;1.30;99.90
21778;DHT22;11050;52.222;20.916;2022-12-10T08:55:38;1.30;99.90
21778;DHT22;11050;52.222;20.916;2022-12-10T08:58:05;1.30;99.90
21778;DHT22;11050;52.222;20.916;2022-12-10T09:00:31;1.30;99.90
21778;DHT22;11050;52.222;20.916;2022-12-10T09:02:56;1.40;99.90
21778;DHT22;11050;52.222;20.916;2022-12-10T09:05:22;1.40;99.90
21778;DHT22;11050;52.222;20.916;2022-12-10T09:07:48;1.40;99.90
21778;DHT22;11050;52.222;20.916;2022-12-10T09:10:15;1.40;99.90
21778;DHT22;11050;52.222;20.916;2022-12-10T09:12:41;1.40;99.90
21778;DHT22;11050;52.222;20.916;2022-12-10T09:15:09;1.40;99.90
21778;DHT22;11050;52.222;20.916;2022-12-10T09:17:36;1.40;99.90
21778;DHT22;11050;52.222;20.916;2022-12-10T09:20:04;1.50;99.90
21778;DHT22;11050;52.222;20.916;2022-12-10T09:22:31;1.50;99.90
21778;DHT22;11050;52.222;20.916;2022-12-10T09:24:57;1.40;99.90
21778;DHT22;11050;52.222;20.916;2022-12-10T09:27:23;1.50;99.90
21778;DHT22;11050;52.222;20.916;2022-12-10T09:29:49;1.50;99.90
21778;DHT22;11050;52.222;20.916;2022-12-10T09:32:15;1.50;99.90
21778;DHT22;11050;52.222;20.916;2022-12-10T09:34:40;1.50;99.90
21778;DHT22;11050;52.222;20.916;2022-12-10T09:37:06;1.50;99.90
21778;DHT22;11050;52.222;20.916;2022-12-10T09:39:32;1.50;99.90
21778;DHT22;11050;52.222;20.916;2022-12-10T09:53:51;1.50;99.90
21778;DHT22;11050;52.222;20.916;2022-12-10T09:56:33;1.60;99.90
21778;DHT22;11050;52.222;20.916;2022-12-10T09:59:29;1.60;99.90
21778;DHT22;11050;52.222;20.916;2022-12-10T10:02:03;1.60;99.90
21778;DHT22;11050;52.222;20.916;2022-12-10T10:04:50;1.60;99.90
21778;DHT22;11050;52.222;20.916;2022-12-10T10:07:28;1.60;99.90
21778;DHT22;11050;52.222;20.916;2022-12-10T10:10:12;1.60;99.90
21778;DHT22;11050;52.222;20.916;2022-12-10T10:12:43;1.70;99.90
21778;DHT22;11050;52.222;20.916;2022-12-10T10:15:15;1.70;99.90
21778;DHT22;11050;52.222;20.916;2022-12-10T10:17:44;1.70;99.90
21778;DHT22;11050;52.222;20.916;2022-12-10T10:20:13;1.70;99.90
21778;DHT22;11050;52.222;20.916;2022-12-10T10:22:40;1.80;99.90
21778;DHT22;11050;52.222;20.916;2022-12-10T10:25:14;1.80;99.90
21778;DHT22;11050;52.222;20.916;2022-12-10T10:27:42;1.80;99.90
21778;DHT22;11050;52.222;20.916;2022-12-10T10:30:15;1.80;99.90
21778;DHT22;11050;52.222;20.916;2022-12-10T10:32:44;1.90;99.90
21778;DHT22;11050;52.222;20.916;2022-12-10T10:38:05;1.90;99.90
21778;DHT22;11050;52.222;20.916;2022-12-10T10:40:40;1.90;99.90
21778;DHT22;11050;52.222;20.916;2022-12-10T10:43:15;1.90;99.90
21778;DHT22;11050;52.222;20.916;2022-12-10T10:46:11;2.00;99.90
21778;DHT22;11050;52.222;20.916;2022-12-10T10:48:38;2.00;99.90
21778;DHT22;11050;52.222;20.916;2022-12-10T10:53:50;2.00;99.90
21778;DHT22;11050;52.222;20.916;2022-12-10T10:56:41;2.10;99.90
21778;DHT22;11050;52.222;20.916;2022-12-10T11:01:53;2.00;99.90
21778;DHT22;11050;52.222;20.916;2022-12-10T11:04:36;2.10;99.90
21778;DHT22;11050;52.222;20.916;2022-12-10T11:07:33;2.10;99.90
21778;DHT22;11050;52.222;20.916;2022-12-10T11:10:03;2.10;99.90
21778;DHT22;11050;52.222;20.916;2022-12-10T11:12:40;2.20;99.90
21778;DHT22;11050;52.222;20.916;2022-12-10T11:18:09;2.20;99.90
21778;DHT22;11050;52.222;20.916;2022-12-10T11:20:59;2.20;99.90
21778;DHT22;11050;52.222;20.916;2022-12-10T11:23:28;2.10;99.90
21778;DHT22;11050;52.222;20.916;2022-12-10T11:26:02;2.20;99.90
21778;DHT22;11050;52.222;20.916;2022-12-10T11:31:57;2.20;99.90
21778;DHT22;11050;52.222;20.916;2022-12-10T11:40:30;2.20;99.90
21778;DHT22;11050;52.222;20.916;2022-12-10T11:43:21;2.20;99.90
21778;DHT22;11050;52.222;20.916;2022-12-10T11:46:21;2.20;99.90
21778;DHT22;11050;52.222;20.916;2022-12-10T11:49:42;2.20;99.90
21778;DHT22;11050;52.222;20.916;2022-12-10T11:55:52;2.20;99.90
21778;DHT22;11050;52.222;20.916;2022-12-10T12:01:23;2.10;99.90
21778;DHT22;11050;52.222;20.916;2022-12-10T12:04:10;2.10;99.90
21778;DHT22;11050;52.222;20.916;2022-12-10T12:07:06;2.10;99.90
21778;DHT22;11050;52.222;20.916;2022-12-10T12:15:32;2.10;99.90
21778;DHT22;11050;52.222;20.916;2022-12-10T12:20:59;2.10;99.90
21778;DHT22;11050;52.222;20.916;2022-12-10T12:26:31;2.10;99.90
21778;DHT22;11050;52.222;20.916;2022-12-10T12:32:07;2.10;99.90
21778;DHT22;11050;52.222;20.916;2022-12-10T12:34:59;2.00;99.90
21778;DHT22;11050;52.222;20.916;2022-12-10T12:37:54;2.00;99.90
21778;DHT22;11050;52.222;20.916;2022-12-10T12:40:33;2.00;99.90
21778;DHT22;11050;52.222;20.916;2022-12-10T12:43:08;1.90;99.90
21778;DHT22;11050;52.222;20.916;2022-12-10T12:45:45;1.90;99.90
21778;DHT22;11050;52.222;20.916;2022-12-10T12:51:06;1.80;99.90
21778;DHT22;11050;52.222;20.916;2022-12-10T12:53:38;1.80;99.90
21778;DHT22;11050;52.222;20.916;2022-12-10T12:56:05;1.80;99.90
21778;DHT22;11050;52.222;20.916;2022-12-10T12:58:55;1.80;99.90
21778;DHT22;11050;52.222;20.916;2022-12-10T13:04:47;1.80;99.90
21778;DHT22;11050;52.222;20.916;2022-12-10T13:09:45;1.80;99.90
21778;DHT22;11050;52.222;20.916;2022-12-10T13:18:33;1.80;99.90
21778;DHT22;11050;52.222;20.916;2022-12-10T13:21:27;1.80;99.90
21778;DHT22;11050;52.222;20.916;2022-12-10T13:24:10;1.80;99.90
21778;DHT22;11050;52.222;20.916;2022-12-10T13:26:41;1.80;99.90
21778;DHT22;11050;52.222;20.916;2022-12-10T13:29:29;1.80;99.90
21778;DHT22;11050;52.222;20.916;2022-12-10T13:32:15;1.80;99.90
21778;DHT22;11050;52.222;20.916;2022-12-10T13:34:47;1.80;99.90
21778;DHT22;11050;52.222;20.916;2022-12-10T13:37:33;1.80;99.90
21778;DHT22;11050;52.222;20.916;2022-12-10T13:42:36;1.80;99.90
21778;DHT22;11050;52.222;20.916;2022-12-10T13:45:26;1.80;99.90
21778;DHT22;11050;52.222;20.916;2022-12-10T13:48:17;1.80;99.90
21778;DHT22;11050;52.222;20.916;2022-12-10T13:51:23;1.80;99.90
21778;DHT22;11050;52.222;20.916;2022-12-10T14:03:00;1.70;99.90
21778;DHT22;11050;52.222;20.916;2022-12-10T14:08:35;1.60;99.90
21778;DHT22;11050;52.222;20.916;2022-12-10T14:11:06;1.70;99.90
21778;DHT22;11050;52.222;20.916;2022-12-10T14:13:47;1.60;99.90
21778;DHT22;11050;52.222;20.916;2022-12-10T14:16:20;1.60;99.90
21778;DHT22;11050;52.222;20.916;2022-12-10T14:19:04;1.60;99.90
21778;DHT22;11050;52.222;20.916;2022-12-10T14:21:37;1.50;99.90
21778;DHT22;11050;52.222;20.916;2022-12-10T14:24:35;1.50;99.90
21778;DHT22;11050;52.222;20.916;2022-12-10T14:27:14;1.50;99.90
21778;DHT22;11050;52.222;20.916;2022-12-10T14:29:50;1.40;99.90
21778;DHT22;11050;52.222;20.916;2022-12-10T14:32:20;1.50;99.90
21778;DHT22;11050;52.222;20.916;2022-12-10T14:34:58;1.50;99.90
21778;DHT22;11050;52.222;20.916;2022-12-10T14:37:27;1.40;99.90
21778;DHT22;11050;52.222;20.916;2022-12-10T14:39:56;1.50;99.90
21778;DHT22;11050;52.222;20.916;2022-12-10T14:42:23;1.50;99.90
21778;DHT22;11050;52.222;20.916;2022-12-10T14:45:01;1.50;99.90
21778;DHT22;11050;52.222;20.916;2022-12-10T14:47:47;1.50;99.90
21778;DHT22;11050;52.222;20.916;2022-12-10T14:50:16;1.40;99.90
21778;DHT22;11050;52.222;20.916;2022-12-10T14:52:45;1.50;99.90
21778;DHT22;11050;52.222;20.916;2022-12-10T14:55:18;1.40;99.90
21778;DHT22;11050;52.222;20.916;2022-12-10T14:58:00;1.40;99.90
21778;DHT22;11050;52.222;20.916;2022-12-10T15:00:29;1.40;99.90
21778;DHT22;11050;52.222;20.916;2022-12-10T15:03:08;1.40;99.90
21778;DHT22;11050;52.222;20.916;2022-12-10T15:05:36;1.40;99.90
21778;DHT22;11050;52.222;20.916;2022-12-10T15:08:05;1.40;99.90
21778;DHT22;11050;52.222;20.916;2022-12-10T15:10:38;1.40;99.90
21778;DHT22;11050;52.222;20.916;2022-12-10T15:13:14;1.30;99.90
21778;DHT22;11050;52.222;20.916;2022-12-10T15:15:50;1.40;99.90
21778;DHT22;11050;52.222;20.916;2022-12-10T15:18:21;1.30;99.90
21778;DHT22;11050;52.222;20.916;2022-12-10T15:21:01;1.40;99.90
21778;DHT22;11050;52.222;20.916;2022-12-10T15:23:35;1.30;99.90
21778;DHT22;11050;52.222;20.916;2022-12-10T15:26:21;1.30;99.90
21778;DHT22;11050;52.222;20.916;2022-12-10T15:29:14;1.30;99.90
21778;DHT22;11050;52.222;20.916;2022-12-10T15:31:49;1.20;99.90
21778;DHT22;11050;52.222;20.916;2022-12-10T15:34:20;1.20;99.90
21778;DHT22;11050;52.222;20.916;2022-12-10T15:36:50;1.20;99.90
21778;DHT22;11050;52.222;20.916;2022-12-10T15:39:25;1.20;99.90
21778;DHT22;11050;52.222;20.916;2022-12-10T15:41:59;1.20;99.90
21778;DHT22;11050;52.222;20.916;2022-12-10T15:49:34;1.20;99.90
21778;DHT22;11050;52.222;20.916;2022-12-10T15:52:00;1.20;99.90
21778;DHT22;11050;52.222;20.916;2022-12-10T15:54:34;1.20;99.90
21778;DHT22;11050;52.222;20.916;2022-12-10T15:57:16;1.20;99.90
21778;DHT22;11050;52.222;20.916;2022-12-10T15:59:45;1.20;99.90
21778;DHT22;11050;52.222;20.916;2022-12-10T16:05:27;1.20;99.90
21778;DHT22;11050;52.222;20.916;2022-12-10T16:07:58;1.10;99.90
21778;DHT22;11050;52.222;20.916;2022-12-10T16:10:27;1.10;99.90
21778;DHT22;11050;52.222;20.916;2022-12-10T16:13:10;1.10;99.90
21778;DHT22;11050;52.222;20.916;2022-12-10T16:15:51;1.10;99.90
21778;DHT22;11050;52.222;20.916;2022-12-10T16:18:20;1.10;99.90
21778;DHT22;11050;52.222;20.916;2022-12-10T16:20:46;1.10;99.90
21778;DHT22;11050;52.222;20.916;2022-12-10T16:23:12;1.10;99.90
21778;DHT22;11050;52.222;20.916;2022-12-10T16:25:40;1.00;99.90
21778;DHT22;11050;52.222;20.916;2022-12-10T16:28:15;1.00;99.90
21778;DHT22;11050;52.222;20.916;2022-12-10T16:30:52;1.00;99.90
21778;DHT22;11050;52.222;20.916;2022-12-10T16:33:22;1.00;99.90
21778;DHT22;11050;52.222;20.916;2022-12-10T16:35:51;1.00;99.90
21778;DHT22;11050;52.222;20.916;2022-12-10T16:38:18;1.00;99.90
21778;DHT22;11050;52.222;20.916;2022-12-10T16:40:45;1.00;99.90
21778;DHT22;11050;52.222;20.916;2022-12-10T16:43:32;1.00;99.90
21778;DHT22;11050;52.222;20.916;2022-12-10T16:45:58;1.00;99.90
21778;DHT22;11050;52.222;20.916;2022-12-10T16:48:24;1.00;99.90
21778;DHT22;11050;52.222;20.916;2022-12-10T16:50:51;1.00;99.90
21778;DHT22;11050;52.222;20.916;2022-12-10T16:53:24;1.00;99.90
21778;DHT22;11050;52.222;20.916;2022-12-10T16:55:56;1.00;99.90
21778;DHT22;11050;52.222;20.916;2022-12-10T16:58:24;0.90;99.90
21778;DHT22;11050;52.222;20.916;2022-12-10T17:00:51;0.90;99.90
21778;DHT22;11050;52.222;20.916;2022-12-10T17:03:24;0.90;99.90
21778;DHT22;11050;52.222;20.916;2022-12-10T17:05:56;0.90;99.90
21778;DHT22;11050;52.222;20.916;2022-12-10T17:08:27;0.80;99.90
21778;DHT22;11050;52.222;20.916;2022-12-10T17:10:55;0.80;99.90
21778;DHT22;11050;52.222;20.916;2022-12-10T17:13:41;0.80;99.90
21778;DHT22;11050;52.222;20.916;2022-12-10T17:16:18;0.80;99.90
21778;DHT22;11050;52.222;20.916;2022-12-10T17:18:46;0.80;99.90
21778;DHT22;11050;52.222;20.916;2022-12-10T17:21:12;0.80;99.90
21778;DHT22;11050;52.222;20.916;2022-12-10T17:23:37;0.80;99.90
21778;DHT22;11050;52.222;20.916;2022-12-10T17:26:03;0.80;99.90
21778;DHT22;11050;52.222;20.916;2022-12-10T17:28:30;0.80;99.90
21778;DHT22;11050;52.222;20.916;2022-12-10T17:30:57;0.80;99.90
21778;DHT22;11050;52.222;20.916;2022-12-10T17:33:23;0.80;99.90
21778;DHT22;11050;52.222;20.916;2022-12-10T17:35:51;0.80;99.90
21778;DHT22;11050;52.222;20.916;2022-12-10T17:38:23;0.80;99.90
21778;DHT22;11050;52.222;20.916;2022-12-10T17:40:51;0.90;99.90
21778;DHT22;11050;52.222;20.916;2022-12-10T17:43:19;0.80;99.90
21778;DHT22;11050;52.222;20.916;2022-12-10T17:45:45;0.80;99.90
21778;DHT22;11050;52.222;20.916;2022-12-10T17:48:16;0.80;99.90
21778;DHT22;11050;52.222;20.916;2022-12-10T17:50:45;0.80;99.90
21778;DHT22;11050;52.222;20.916;2022-12-10T17:53:13;0.80;99.90